createdAt,value
2022-11-21T00:01:16.783Z,107.70
2022-11-21T00:03:45.038Z,101.60
2022-11-21T00:06:13.426Z,94.80
2022-11-21T00:08:41.686Z,99.90
2022-11-21T00:11:09.617Z,105.00
2022-11-21T00:13:37.873Z,88.40
2022-11-21T00:16:08.109Z,101.40
2022-11-21T00:18:36.066Z,87.20
2022-11-21T00:21:06.025Z,88.30
2022-11-21T00:23:34.050Z,83.20
2022-11-21T00:26:06.590Z,73.10
2022-11-21T00:28:35.080Z,72.70
2022-11-21T00:31:03.708Z,71.30
2022-11-21T00:33:32.384Z,76.10
2022-11-21T00:36:06.981Z,76.50
2022-11-21T00:38:35.594Z,70.90
2022-11-21T00:41:03.673Z,73.00
2022-11-21T00:43:31.739Z,65.90
2022-11-21T00:46:01.535Z,64.20
2022-11-21T00:48:30.261Z,62.60
2022-11-21T00:51:00.778Z,67.20
2022-11-21T00:53:29.941Z,65.70
2022-11-21T00:55:58.159Z,87.20
2022-11-21T00:58:26.625Z,82.10
2022-11-21T01:01:03.619Z,88.80
2022-11-21T01:03:34.189Z,86.60
2022-11-21T01:06:12.988Z,82.40
2022-11-21T01:08:43.386Z,87.10
2022-11-21T01:11:21.232Z,86.80
2022-11-21T01:13:50.017Z,70.90
2022-11-21T01:16:22.711Z,62.10
2022-11-21T01:18:51.445Z,56.60
2022-11-21T01:21:30.621Z,56.10
2022-11-21T01:24:02.904Z,59.70
2022-11-21T01:26:33.112Z,62.10
2022-11-21T01:29:01.045Z,53.70
2022-11-21T01:31:30.649Z,58.70
2022-11-21T01:34:00.359Z,57.30
2022-11-21T01:36:31.113Z,84.00
2022-11-21T01:39:03.570Z,73.90
2022-11-21T01:41:37.683Z,60.60
2022-11-21T01:44:17.907Z,55.10
2022-11-21T01:46:46.527Z,55.90
2022-11-21T01:49:20.264Z,52.50
2022-11-21T01:51:56.188Z,50.10
2022-11-21T01:57:07.080Z,55.90
2022-11-21T01:59:44.904Z,56.00
2022-11-21T02:02:15.524Z,56.80
2022-11-21T02:04:44.711Z,59.50
2022-11-21T02:07:14.978Z,54.20
2022-11-21T02:09:46.832Z,53.50
2022-11-21T02:12:29.820Z,52.80
2022-11-21T02:14:58.756Z,56.70
2022-11-21T02:17:29.852Z,53.00
2022-11-21T02:20:00.807Z,47.00
2022-11-21T02:22:34.802Z,47.90
2022-11-21T02:25:14.240Z,48.30
2022-11-21T02:27:42.623Z,46.00
2022-11-21T02:30:12.331Z,45.00
2022-11-21T02:32:45.353Z,43.70
2022-11-21T02:35:17.793Z,43.80
2022-11-21T02:37:48.324Z,51.00
2022-11-21T02:40:25.554Z,51.40
2022-11-21T02:43:18.998Z,49.40
2022-11-21T02:45:47.131Z,48.40
2022-11-21T02:48:15.450Z,47.90
2022-11-21T02:50:45.391Z,49.20
2022-11-21T02:53:16.512Z,49.20
2022-11-21T02:55:44.972Z,44.70
2022-11-21T02:58:12.941Z,46.00
2022-11-21T03:00:42.929Z,45.90
2022-11-21T03:03:11.524Z,48.70
2022-11-21T03:05:39.929Z,42.80
2022-11-21T03:08:08.200Z,47.60
2022-11-21T03:10:36.280Z,45.50
2022-11-21T03:13:04.207Z,43.30
2022-11-21T03:15:34.331Z,45.80
2022-11-21T03:18:03.352Z,42.30
2022-11-21T03:20:32.888Z,42.90
2022-11-21T03:23:01.251Z,43.10
2022-11-21T03:25:30.233Z,40.70
2022-11-21T03:27:58.306Z,39.40
2022-11-21T03:30:27.774Z,38.60
2022-11-21T03:32:56.848Z,37.70
2022-11-21T03:35:25.392Z,41.30
2022-11-21T03:37:53.667Z,37.40
2022-11-21T03:40:21.656Z,40.10
2022-11-21T03:42:49.506Z,40.60
2022-11-21T03:45:17.475Z,41.50
2022-11-21T03:47:45.314Z,42.30
2022-11-21T03:50:15.309Z,44.70
2022-11-21T03:52:43.111Z,42.90
2022-11-21T03:55:11.095Z,40.10
2022-11-21T03:57:39.783Z,40.50
2022-11-21T04:00:08.661Z,37.40
2022-11-21T04:02:36.507Z,38.90
2022-11-21T04:05:04.933Z,36.40
2022-11-21T04:07:32.856Z,37.70
2022-11-21T04:10:00.839Z,37.00
2022-11-21T04:12:28.833Z,39.70
2022-11-21T04:14:56.639Z,38.70
2022-11-21T04:17:24.411Z,38.60
2022-11-21T04:19:52.330Z,42.00
2022-11-21T04:22:20.127Z,40.30
2022-11-21T04:24:48.065Z,41.00
2022-11-21T04:27:15.932Z,40.60
2022-11-21T04:29:43.800Z,43.00
2022-11-21T04:32:11.667Z,44.40
2022-11-21T04:34:39.842Z,43.70
2022-11-21T04:37:11.421Z,43.40
2022-11-21T04:39:39.774Z,38.60
2022-11-21T04:42:07.643Z,45.60
2022-11-21T04:44:35.455Z,45.60
2022-11-21T04:47:05.529Z,58.40
2022-11-21T04:49:33.744Z,48.20
2022-11-21T04:52:01.882Z,50.00
2022-11-21T04:54:30.253Z,47.90
2022-11-21T04:56:58.330Z,44.30
2022-11-21T04:59:26.152Z,46.90
2022-11-21T05:01:54.063Z,44.40
2022-11-21T05:04:22.047Z,45.70
2022-11-21T05:06:49.874Z,47.90
2022-11-21T05:09:17.972Z,44.50
2022-11-21T05:12:04.446Z,48.40
2022-11-21T05:14:32.346Z,47.10
2022-11-21T05:17:00.315Z,46.70
2022-11-21T05:19:28.183Z,47.20
2022-11-21T05:21:56.767Z,45.60
2022-11-21T05:24:25.131Z,43.50
2022-11-21T05:26:54.731Z,47.70
2022-11-21T05:29:27.770Z,47.70
2022-11-21T05:31:56.428Z,50.80
2022-11-21T05:34:24.398Z,52.30
2022-11-21T05:37:01.380Z,44.00
2022-11-21T05:39:29.285Z,44.70
2022-11-21T05:42:01.476Z,45.70
2022-11-21T05:44:31.322Z,44.20
2022-11-21T05:46:59.607Z,43.40
2022-11-21T05:49:27.680Z,52.00
2022-11-21T05:51:55.665Z,48.60
2022-11-21T05:54:23.622Z,43.30
2022-11-21T05:56:51.488Z,47.70
2022-11-21T05:59:19.354Z,101.00
2022-11-21T06:02:05.860Z,52.10
2022-11-21T06:04:35.086Z,42.80
2022-11-21T06:07:03.016Z,45.40
2022-11-21T06:09:31.304Z,43.70
2022-11-21T06:11:59.275Z,46.30
2022-11-21T06:14:27.342Z,50.30
2022-11-21T06:16:55.624Z,45.50
2022-11-21T06:19:23.612Z,44.40
2022-11-21T06:21:51.468Z,46.40
2022-11-21T06:24:22.097Z,44.20
2022-11-21T06:26:50.469Z,43.00
2022-11-21T06:29:18.343Z,41.60
2022-11-21T06:31:46.310Z,39.00
2022-11-21T06:34:14.237Z,38.40
2022-11-21T06:36:42.352Z,39.40
2022-11-21T06:39:10.412Z,40.70
2022-11-21T06:41:38.501Z,39.80
2022-11-21T06:44:06.346Z,43.90
2022-11-21T06:46:34.233Z,50.70
2022-11-21T06:49:02.203Z,44.90
2022-11-21T06:51:30.165Z,46.80
2022-11-21T06:53:59.417Z,42.00
2022-11-21T06:56:29.718Z,43.20
2022-11-21T06:58:58.706Z,44.00
2022-11-21T07:01:26.950Z,51.90
2022-11-21T07:03:55.829Z,63.60
2022-11-21T07:06:24.444Z,61.90
2022-11-21T07:11:45.814Z,53.60
2022-11-21T07:14:13.631Z,51.90
2022-11-21T07:16:41.495Z,46.60
2022-11-21T07:19:09.485Z,43.50
2022-11-21T07:21:37.760Z,47.80
2022-11-21T07:24:06.280Z,48.50
2022-11-21T07:26:34.170Z,48.60
2022-11-21T07:29:02.115Z,47.30
2022-11-21T07:31:30.050Z,47.50
2022-11-21T07:33:57.864Z,45.40
2022-11-21T07:36:25.681Z,48.80
2022-11-21T07:38:53.656Z,54.10
2022-11-21T07:41:21.489Z,48.60
2022-11-21T07:43:49.386Z,48.40
2022-11-21T07:46:17.184Z,45.10
2022-11-21T07:48:45.018Z,49.40
2022-11-21T07:51:12.890Z,47.70
2022-11-21T07:53:40.760Z,50.80
2022-11-21T07:56:09.891Z,53.80
2022-11-21T07:58:37.872Z,52.20
2022-11-21T08:01:06.970Z,54.50
2022-11-21T08:03:35.192Z,53.70
2022-11-21T08:06:04.840Z,54.40
2022-11-21T08:08:32.977Z,55.00
2022-11-21T08:11:05.868Z,52.90
2022-11-21T08:13:35.523Z,56.30
2022-11-21T08:16:04.622Z,54.00
2022-11-21T08:18:34.276Z,54.70
2022-11-21T08:21:03.553Z,54.80
2022-11-21T08:23:32.178Z,52.70
2022-11-21T08:26:00.120Z,51.70
2022-11-21T08:28:28.410Z,53.30
2022-11-21T08:30:56.411Z,55.10
2022-11-21T08:33:24.399Z,55.10
2022-11-21T08:35:55.111Z,54.80
2022-11-21T08:38:23.293Z,52.20
2022-11-21T08:41:14.786Z,58.60
2022-11-21T08:43:45.765Z,57.30
2022-11-21T08:46:13.649Z,57.60
2022-11-21T08:48:41.515Z,53.30
2022-11-21T08:51:09.529Z,54.90
2022-11-21T08:53:37.508Z,57.10
2022-11-21T08:56:05.571Z,59.10
2022-11-21T08:58:33.601Z,51.70
2022-11-21T09:01:01.646Z,59.30
2022-11-21T09:03:31.435Z,55.60
2022-11-21T09:06:00.440Z,52.70
2022-11-21T09:08:30.793Z,56.90
2022-11-21T09:10:59.251Z,59.30
2022-11-21T09:13:27.721Z,60.00
2022-11-21T09:16:19.145Z,61.90
2022-11-21T09:18:51.642Z,60.50
2022-11-21T09:21:20.537Z,54.10
2022-11-21T09:23:48.343Z,53.60
2022-11-21T09:26:16.228Z,58.00
2022-11-21T09:28:44.162Z,57.10
2022-11-21T09:31:12.476Z,58.60
2022-11-21T09:33:40.347Z,56.60
2022-11-21T09:36:08.156Z,58.30
2022-11-21T09:38:35.964Z,54.40
2022-11-21T09:41:46.297Z,58.20
2022-11-21T09:44:39.322Z,56.50
2022-11-21T09:47:28.097Z,59.50
2022-11-21T09:50:18.039Z,54.60
2022-11-21T09:53:06.917Z,53.90
2022-11-21T09:55:34.768Z,61.60
2022-11-21T09:58:09.309Z,63.20
2022-11-21T10:00:37.244Z,50.20
2022-11-21T10:03:05.433Z,66.70
2022-11-21T10:05:51.679Z,59.70
2022-11-21T10:08:40.941Z,54.80
2022-11-21T10:12:05.256Z,59.90
2022-11-21T10:14:48.253Z,61.50
2022-11-21T10:17:48.762Z,56.50
2022-11-21T10:20:31.803Z,53.70
2022-11-21T10:23:08.885Z,58.00
2022-11-21T10:25:39.028Z,57.60
2022-11-21T10:28:19.576Z,56.20
2022-11-21T10:30:51.740Z,64.50
2022-11-21T10:33:30.754Z,58.40
2022-11-21T10:36:47.436Z,59.00
2022-11-21T10:39:24.540Z,58.40
2022-11-21T10:42:12.457Z,59.30
2022-11-21T10:44:58.900Z,56.20
2022-11-21T10:47:33.995Z,53.30
2022-11-21T10:50:10.771Z,62.10
2022-11-21T10:52:48.150Z,57.80
2022-11-21T10:55:18.145Z,59.70
2022-11-21T10:57:51.357Z,69.60
2022-11-21T11:00:24.897Z,57.90
2022-11-21T11:02:56.082Z,56.50
2022-11-21T11:05:26.429Z,58.50
2022-11-21T11:08:08.325Z,62.60
2022-11-21T11:10:36.120Z,59.50
2022-11-21T11:13:46.436Z,63.60
2022-11-21T11:16:17.315Z,62.50
2022-11-21T11:18:57.651Z,62.50
2022-11-21T11:21:31.255Z,62.90
2022-11-21T11:24:11.453Z,60.60
2022-11-21T11:26:49.043Z,64.10
2022-11-21T11:29:20.467Z,66.40
2022-11-21T11:31:56.698Z,64.70
2022-11-21T11:35:06.578Z,65.20
2022-11-21T11:37:55.530Z,67.80
2022-11-21T11:40:42.899Z,100.70
2022-11-21T11:43:35.749Z,68.30
2022-11-21T11:46:35.718Z,68.70
2022-11-21T11:49:20.184Z,75.90
2022-11-21T11:54:48.584Z,72.80
2022-11-21T11:57:17.510Z,71.60
2022-11-21T11:59:57.910Z,91.70
2022-11-21T12:02:40.922Z,70.60
2022-11-21T12:05:20.236Z,68.00
2022-11-21T12:11:24.740Z,72.50
2022-11-21T12:13:57.502Z,78.50
2022-11-21T12:16:26.912Z,80.90
2022-11-21T12:19:11.012Z,79.70
2022-11-21T12:21:38.870Z,73.80
2022-11-21T12:24:11.260Z,63.70
2022-11-21T12:26:48.283Z,79.80
2022-11-21T12:29:34.972Z,72.50
2022-11-21T12:32:30.533Z,83.70
2022-11-21T12:38:19.697Z,83.10
2022-11-21T12:40:56.589Z,83.00
2022-11-21T12:43:53.102Z,79.30
2022-11-21T12:46:34.877Z,78.60
2022-11-21T12:49:59.833Z,101.70
2022-11-21T12:53:00.505Z,91.40
2022-11-21T12:55:40.911Z,91.60
2022-11-21T12:58:32.986Z,96.70
2022-11-21T13:01:22.316Z,90.30
2022-11-21T13:04:15.716Z,91.80
2022-11-21T13:06:46.982Z,83.50
2022-11-21T13:09:19.181Z,84.80
2022-11-21T13:12:00.593Z,86.60
2022-11-21T13:14:45.269Z,109.30
2022-11-21T13:17:25.741Z,95.90
2022-11-21T13:20:05.317Z,87.90
2022-11-21T13:22:36.286Z,85.30
2022-11-21T13:25:30.129Z,86.60
2022-11-21T13:28:13.379Z,102.50
2022-11-21T13:30:50.957Z,81.90
2022-11-21T13:33:37.340Z,96.10
2022-11-21T13:36:08.021Z,99.80
2022-11-21T13:38:51.290Z,96.80
2022-11-21T13:41:53.480Z,106.40
2022-11-21T13:44:33.685Z,91.90
2022-11-21T13:47:02.886Z,91.60
2022-11-21T13:49:57.020Z,93.80
2022-11-21T13:52:55.997Z,92.90
2022-11-21T13:55:51.313Z,91.80
2022-11-21T13:58:34.469Z,103.20
2022-11-21T14:01:23.280Z,91.40
2022-11-21T14:04:09.588Z,95.50
2022-11-21T14:06:43.216Z,93.90
2022-11-21T14:09:28.273Z,146.10
2022-11-21T14:12:30.019Z,105.10
2022-11-21T14:15:00.674Z,132.30
2022-11-21T14:17:48.965Z,114.10
2022-11-21T14:20:19.296Z,118.60
2022-11-21T14:22:54.875Z,141.00
2022-11-21T14:25:36.451Z,200.50
2022-11-21T14:28:06.884Z,175.00
2022-11-21T14:30:40.157Z,110.80
2022-11-21T14:33:28.623Z,98.80
2022-11-21T14:36:19.290Z,192.00
2022-11-21T14:39:13.838Z,157.90
2022-11-21T14:41:39.360Z,104.10
2022-11-21T14:44:16.601Z,121.50
2022-11-21T14:46:47.354Z,103.90
2022-11-21T14:49:21.847Z,95.30
2022-11-21T14:52:11.037Z,107.60
2022-11-21T14:55:06.099Z,111.50
2022-11-21T14:57:41.796Z,111.20
2022-11-21T15:00:43.479Z,106.30
2022-11-21T15:03:04.657Z,196.60
2022-11-21T15:06:00.813Z,172.20
2022-11-21T15:11:13.715Z,100.80
2022-11-21T15:14:12.315Z,124.20
2022-11-21T15:16:33.084Z,119.20
2022-11-21T15:19:01.036Z,167.90
2022-11-21T15:21:29.738Z,117.50
2022-11-21T15:23:57.626Z,168.70
2022-11-21T15:26:33.969Z,124.10
2022-11-21T15:29:02.118Z,225.40
2022-11-21T15:31:30.002Z,183.00
2022-11-21T15:37:12.768Z,111.60
2022-11-21T15:39:45.546Z,157.80
2022-11-21T15:42:50.164Z,136.90
2022-11-21T15:45:26.988Z,132.10
2022-11-21T15:47:56.073Z,180.60
2022-11-21T15:50:25.110Z,162.40
2022-11-21T15:52:53.379Z,154.40
2022-11-21T15:55:31.500Z,142.20
2022-11-21T15:57:59.372Z,118.60
2022-11-21T16:00:27.233Z,137.20
2022-11-21T16:02:55.102Z,126.60
2022-11-21T16:05:23.072Z,199.30
2022-11-21T16:07:51.047Z,239.70
2022-11-21T16:10:26.101Z,123.90
2022-11-21T16:12:56.168Z,117.40
2022-11-21T16:15:24.115Z,116.30
2022-11-21T16:17:52.649Z,120.20
2022-11-21T16:20:20.781Z,231.40
2022-11-21T16:22:50.002Z,140.00
2022-11-21T16:25:18.104Z,168.20
2022-11-21T16:27:47.195Z,137.80
2022-11-21T16:30:15.421Z,152.40
2022-11-21T16:32:43.438Z,133.90
2022-11-21T16:35:11.406Z,154.00
2022-11-21T16:37:40.199Z,174.20
2022-11-21T16:40:10.005Z,153.80
2022-11-21T16:42:37.877Z,138.70
2022-11-21T16:45:06.182Z,175.70
2022-11-21T16:47:37.247Z,317.50
2022-11-21T16:50:05.910Z,196.90
2022-11-21T16:52:35.739Z,171.60
2022-11-21T16:55:04.592Z,173.40
2022-11-21T16:57:33.375Z,131.20
2022-11-21T17:00:01.247Z,173.70
2022-11-21T17:02:29.185Z,161.60
2022-11-21T17:04:57.382Z,252.60
2022-11-21T17:07:25.284Z,156.00
2022-11-21T17:09:53.147Z,224.80
2022-11-21T17:12:20.999Z,214.50
2022-11-21T17:14:52.794Z,202.60
2022-11-21T17:17:20.662Z,244.90
2022-11-21T17:19:48.981Z,203.40
2022-11-21T17:22:20.185Z,351.80
2022-11-21T17:24:53.439Z,208.40
2022-11-21T17:27:22.857Z,169.70
2022-11-21T17:29:51.324Z,221.30
2022-11-21T17:32:19.236Z,205.00
2022-11-21T17:34:47.103Z,154.40
2022-11-21T17:37:14.976Z,200.20
2022-11-21T17:39:42.890Z,168.20
2022-11-21T17:42:10.887Z,171.40
2022-11-21T17:44:38.748Z,140.20
2022-11-21T17:47:06.795Z,159.70
2022-11-21T17:49:37.308Z,218.30
2022-11-21T17:52:06.837Z,454.90
2022-11-21T17:54:34.914Z,206.30
2022-11-21T17:57:03.186Z,169.10
2022-11-21T17:59:31.273Z,148.70
2022-11-21T18:01:59.463Z,165.20
2022-11-21T18:04:28.570Z,175.80
2022-11-21T18:06:56.799Z,165.70
2022-11-21T18:09:24.775Z,132.30
2022-11-21T18:11:52.646Z,159.80
2022-11-21T18:14:20.613Z,119.00
2022-11-21T18:16:53.103Z,124.80
2022-11-21T18:19:22.192Z,135.80
2022-11-21T18:21:51.856Z,115.40
2022-11-21T18:24:19.727Z,131.40
2022-11-21T18:26:47.742Z,138.10
2022-11-21T18:32:04.051Z,158.10
2022-11-21T18:34:31.953Z,160.40
2022-11-21T18:36:59.790Z,234.60
2022-11-21T18:39:27.753Z,260.90
2022-11-21T18:41:55.827Z,143.80
2022-11-21T18:44:23.900Z,240.90
2022-11-21T18:46:52.019Z,112.90
2022-11-21T18:49:19.987Z,157.70
2022-11-21T18:51:48.851Z,207.10
2022-11-21T18:54:17.365Z,117.30
2022-11-21T18:56:45.390Z,130.40
2022-11-21T18:59:13.255Z,79.30
2022-11-21T19:01:41.326Z,161.20
2022-11-21T19:04:09.606Z,86.30
2022-11-21T19:06:37.517Z,103.70
2022-11-21T19:09:05.511Z,76.50
2022-11-21T19:11:33.328Z,66.50
2022-11-21T19:14:01.329Z,93.40
2022-11-21T19:16:36.856Z,177.80
2022-11-21T19:21:57.868Z,86.50
2022-11-21T19:24:25.792Z,521.00
2022-11-21T19:26:53.620Z,171.30
2022-11-21T19:29:21.536Z,86.30
2022-11-21T19:31:49.737Z,112.80
2022-11-21T19:34:17.908Z,71.10
2022-11-21T19:36:46.073Z,77.20
2022-11-21T19:39:14.382Z,60.80
2022-11-21T19:41:42.253Z,65.10
2022-11-21T19:44:11.585Z,70.30
2022-11-21T19:46:40.064Z,84.10
2022-11-21T19:49:10.860Z,278.40
2022-11-21T19:51:41.854Z,84.80
2022-11-21T19:54:12.341Z,71.80
2022-11-21T19:56:40.476Z,92.50
2022-11-21T19:59:12.618Z,100.10
2022-11-21T20:01:40.925Z,76.50
2022-11-21T20:04:09.128Z,59.40
2022-11-21T20:06:41.549Z,52.20
2022-11-21T20:09:12.056Z,146.00
2022-11-21T20:11:41.686Z,51.50
2022-11-21T20:14:10.024Z,56.30
2022-11-21T20:16:40.921Z,62.00
2022-11-21T20:19:12.335Z,60.20
2022-11-21T20:21:40.895Z,50.10
2022-11-21T20:24:08.902Z,50.10
2022-11-21T20:26:37.359Z,220.70
2022-11-21T20:29:06.304Z,58.10
2022-11-21T20:31:37.777Z,55.80
2022-11-21T20:34:09.894Z,55.80
2022-11-21T20:36:38.200Z,61.60
2022-11-21T20:39:15.615Z,63.70
2022-11-21T20:41:45.417Z,59.00
2022-11-21T20:45:07.045Z,57.20
2022-11-21T20:47:03.215Z,58.50
2022-11-21T20:49:31.975Z,48.30
2022-11-21T20:54:48.009Z,45.00
2022-11-21T20:57:16.061Z,38.80
2022-11-21T20:59:43.956Z,36.10
2022-11-21T21:02:13.903Z,37.20
2022-11-21T21:04:42.377Z,39.60
2022-11-21T21:07:10.463Z,54.40
2022-11-21T21:09:38.455Z,41.20
2022-11-21T21:12:06.597Z,41.00
2022-11-21T21:14:34.629Z,69.10
2022-11-21T21:17:02.523Z,50.70
2022-11-21T21:19:30.576Z,44.50
2022-11-21T21:21:58.974Z,50.20
2022-11-21T21:24:27.760Z,42.60
2022-11-21T21:26:55.568Z,38.50
2022-11-21T21:29:23.492Z,34.10
2022-11-21T21:31:52.558Z,35.60
2022-11-21T21:34:22.436Z,39.60
2022-11-21T21:36:51.551Z,103.00
2022-11-21T21:39:19.621Z,284.80
2022-11-21T21:41:47.994Z,232.90
2022-11-21T21:44:16.791Z,107.20
2022-11-21T21:46:45.102Z,59.60
2022-11-21T21:49:13.358Z,45.40
2022-11-21T21:51:41.525Z,43.70
2022-11-21T21:54:20.475Z,46.90
2022-11-21T21:56:48.519Z,50.90
2022-11-21T21:59:18.305Z,50.60
2022-11-21T22:01:46.894Z,51.30
2022-11-21T22:04:14.920Z,45.90
2022-11-21T22:06:42.895Z,49.00
2022-11-21T22:09:10.818Z,48.60
2022-11-21T22:11:39.423Z,44.30
2022-11-21T22:14:12.119Z,44.70
2022-11-21T22:16:40.962Z,41.20
2022-11-21T22:19:09.464Z,35.60
2022-11-21T22:21:38.565Z,39.70
2022-11-21T22:24:30.493Z,34.60
2022-11-21T22:26:58.513Z,39.40
2022-11-21T22:29:26.484Z,40.10
2022-11-21T22:31:54.327Z,41.50
2022-11-21T22:34:22.662Z,39.90
2022-11-21T22:36:50.475Z,38.50
2022-11-21T22:39:18.378Z,39.20
2022-11-21T22:41:46.294Z,37.50
2022-11-21T22:44:14.266Z,42.20
2022-11-21T22:46:42.221Z,36.90
2022-11-21T22:49:10.125Z,44.20
2022-11-21T22:51:38.009Z,40.70
2022-11-21T22:54:05.912Z,36.10
2022-11-21T22:56:33.793Z,39.90
2022-11-21T22:59:01.762Z,37.70
2022-11-21T23:01:29.787Z,45.00
2022-11-21T23:03:57.749Z,43.90
2022-11-21T23:06:27.200Z,47.20
2022-11-21T23:08:56.744Z,49.50
2022-11-21T23:11:36.370Z,45.30
2022-11-21T23:14:08.629Z,50.80
2022-11-21T23:16:37.041Z,54.60
2022-11-21T23:19:05.030Z,52.40
2022-11-21T23:21:32.947Z,49.50
2022-11-21T23:24:00.903Z,52.60
2022-11-21T23:26:28.786Z,47.50
2022-11-21T23:28:56.701Z,49.50
2022-11-21T23:31:24.663Z,53.80
2022-11-21T23:33:53.001Z,56.10
2022-11-21T23:36:20.886Z,53.80
2022-11-21T23:38:48.764Z,57.40
2022-11-21T23:41:16.624Z,52.40
2022-11-21T23:43:44.543Z,64.70
2022-11-21T23:46:12.427Z,51.60
2022-11-21T23:48:40.411Z,53.20
2022-11-21T23:51:08.791Z,47.60
2022-11-21T23:53:36.693Z,48.10
2022-11-21T23:56:04.874Z,45.10
2022-11-21T23:58:32.906Z,48.80
